Latest Weather Observations for Tindal

IDD60801

Issued at 11:01 pm CST Tuesday 1 September 2015 (issued every 30 minutes, with the page automatically refreshed every 10 minutes)

About weather observations | Map of weather stations | Latest weather observations for NT | Other Formats
Station Details ID: 014932 Name: TINDAL RAAF Lat: -14.52 Lon: 132.38 Height: 133.6 m
Data from the previous 72 hours. | See also: Recent months at Tindal
Date/Time
CST
Temp
°C
App
Temp
°C
Dew
Point
Rel
Hum
%
Delta-T
°C
Wind Press
QNH
hPa
Press
MSL
hPa
Rain
since 9 am
mm
Dir
 
Spd
km/h
Gust
km/h
Spd
kts
Gust
kts
01/11:00pm 23.2 24.5 14.2 57 5.3 CALM 0 0 0 0 1013.2 - 0.0
01/10:40pm 23.6 25.0 14.3 56 5.5 CALM 0 0 0 0 1013.2 - 0.0
01/10:33pm 24.0 25.3 14.1 54 5.9 CALM 0 0 0 0 1013.3 - 0.0
01/10:30pm 24.1 25.3 13.9 53 6.0 CALM 0 0 0 0 1013.2 - 0.0
01/10:00pm 24.5 25.8 14.0 52 6.2 CALM 0 0 0 0 1013.1 - 0.0
01/09:30pm 24.3 24.4 13.8 52 6.2 ESE 6 7 3 4 1012.8 - 0.0
01/09:00pm 24.5 25.0 14.0 52 6.2 SSE 4 9 2 5 1012.5 1011.6 0.0
01/08:30pm 27.2 28.3 13.5 42 8.1 CALM 0 0 0 0 1012.2 - 0.0
01/08:00pm 28.0 28.6 13.1 39 8.8 WNW 2 6 1 3 1011.9 - 0.0
01/07:38pm 28.4 27.5 12.7 38 9.3 NW 9 13 5 7 1011.7 - 0.0
01/07:30pm 29.4 29.5 12.8 36 9.8 WSW 4 11 2 6 1011.5 - 0.0
01/07:14pm 30.0 29.2 12.9 35 10.2 WSW 9 11 5 6 1011.2 - 0.0
01/07:00pm 30.5 28.9 12.9 34 10.5 WNW 13 13 7 7 1011.1 - 0.0
01/06:30pm 31.9 31.4 12.2 30 11.7 WSW 6 9 3 5 1010.8 - 0.0
01/06:00pm 33.3 32.4 11.2 26 13.0 WSW 7 9 4 5 1010.7 1009.8 0.0
01/05:30pm 34.0 32.5 11.8 26 13.2 WSW 11 15 6 8 1010.5 - 0.0
01/05:00pm 34.7 32.8 11.8 25 13.7 W 13 17 7 9 1010.4 - 0.0
01/04:30pm 34.3 32.9 10.8 24 13.8 NW 9 13 5 7 1010.4 - 0.0
01/04:00pm 34.8 33.1 11.2 24 14.0 W 11 19 6 10 1010.6 - 0.0
01/03:30pm 35.0 34.1 11.4 24 14.0 NNW 7 17 4 9 1010.8 - 0.0
01/03:00pm 34.0 33.4 12.4 27 13.0 N 7 13 4 7 1011.2 1010.3 0.0
01/02:30pm 32.9 31.4 12.0 28 12.4 N 11 20 6 11 1011.7 - 0.0
01/02:00pm 32.9 32.7 13.5 30 11.8 S 7 11 4 6 1012.1 - 0.0
01/01:30pm 33.1 33.3 14.7 33 11.4 WSW 7 13 4 7 1012.7 - 0.0
01/01:00pm 33.4 31.8 14.9 32 11.5 NNW 17 28 9 15 1013.1 - 0.0
01/12:30pm 32.5 31.7 15.1 35 10.8 NNW 13 22 7 12 1013.7 - 0.0
01/12:00pm 32.6 31.6 15.6 36 10.6 NW 15 22 8 12 1014.2 1013.4 0.0
01/11:30am 32.0 30.2 15.5 37 10.3 NW 19 24 10 13 1014.6 - 0.0
01/11:00am 30.7 29.1 15.9 40 9.2 NNW 19 30 10 16 1015.1 - 0.0
01/10:30am 30.5 29.7 17.2 44 8.5 NNW 17 24 9 13 1015.6 - 0.0
01/10:00am 30.0 29.1 17.8 48 7.8 NW 19 26 10 14 1015.9 - 0.0
01/09:30am 28.6 27.5 17.8 52 6.9 NNW 20 30 11 16 1015.8 - 0.0
01/09:00am 27.5 27.7 19.3 61 5.3 NW 17 24 9 13 1015.7 1014.9 0.0
01/08:30am 25.8 26.9 19.7 69 4.0 NNW 13 17 7 9 1015.6 - 0.0
01/08:00am 25.0 26.0 19.4 71 3.6 NNW 13 17 7 9 1015.3 - 0.0
01/07:30am 23.1 25.1 18.8 77 2.7 NW 6 7 3 4 1015.0 - 0.0
01/07:00am 21.8 23.3 17.6 77 2.6 N 6 7 3 4 1014.6 - 0.0
01/06:30am 21.5 22.8 17.1 76 2.7 N 6 7 3 4 1014.1 - 0.0
01/06:00am 21.6 22.9 17.0 75 2.8 N 6 6 3 3 1013.8 1013.0 0.0
01/05:30am 22.6 24.1 17.7 74 3.1 N 6 7 3 4 1013.6 - 0.0
01/05:00am 23.3 24.8 17.5 70 3.6 N 6 7 3 4 1013.4 - 0.0
01/04:30am 24.0 25.0 17.7 68 4.0 N 9 13 5 7 1013.4 - 0.0
01/04:00am 23.7 24.5 17.4 68 3.9 N 9 13 5 7 1013.4 - 0.0
01/03:30am 21.7 21.9 14.6 64 4.2 N 7 9 4 5 1013.3 - 0.0
01/03:00am 22.9 23.4 15.0 61 4.7 NNW 6 7 3 4 1013.4 1012.6 0.0
01/02:30am 22.5 21.8 15.4 64 4.3 ENE 13 15 7 8 1013.6 - 0.0
01/02:00am 22.9 22.9 14.2 58 5.1 N 7 9 4 5 1013.4 - 0.0
01/01:30am 23.5 23.0 13.9 55 5.7 W 9 11 5 6 1013.7 - 0.0
01/01:13am 24.1 21.9 14.5 55 5.7 NW 19 24 10 13 1013.7 - 0.0
01/01:00am 22.8 19.8 12.1 51 6.1 NW 19 28 10 15 1013.7 - 0.0
01/12:55am 21.7 18.7 12.0 54 5.5 NW 19 28 10 15 1013.7 - 0.0
01/12:30am 21.9 22.6 12.2 54 5.5 CALM 0 0 0 0 1013.5 - 0.0
01/12:00am 21.3 20.8 11.9 55 5.3 SSE 6 9 3 5 1013.6 1013.1 0.0
 
Date/Time
CST
Temp
°C
App
Temp
°C
Dew
Point
Rel
Hum
%
Delta-T
°C
Wind Press
QNH
hPa
Press
MSL
hPa
Rain
since 9 am
mm
Dir
 
Spd
km/h
Gust
km/h
Spd
kts
Gust
kts
31/11:30pm 21.5 21.1 12.9 58 4.9 SSE 7 11 4 6 1013.5 - 0.0
31/11:00pm 21.4 21.1 12.8 58 4.9 W 6 13 3 7 1013.6 - 0.0
31/10:30pm 23.6 24.2 12.0 48 6.6 CALM 0 0 0 0 1013.5 - 0.0
31/10:00pm 21.5 20.8 13.2 59 4.8 SE 9 9 5 5 1013.5 - 0.0
31/09:30pm 24.4 24.2 13.0 49 6.6 ESE 6 7 3 4 1013.6 - 0.0
31/09:00pm 25.3 26.1 12.5 45 7.4 CALM 0 0 0 0 1013.4 1012.9 0.0
31/08:30pm 25.7 25.3 12.5 44 7.7 ESE 6 6 3 3 1013.1 - 0.0
31/08:00pm 26.9 26.5 12.5 40 8.4 E 6 9 3 5 1012.8 - 0.0
31/07:30pm 28.4 27.5 11.5 35 9.8 E 7 7 4 4 1012.5 - 0.0
31/07:00pm 30.0 29.0 11.0 31 11.0 E 7 9 4 5 1012.1 - 0.0
31/06:30pm 32.1 31.1 10.2 26 12.6 S 6 7 3 4 1011.9 - 0.0
31/06:00pm 33.3 31.6 10.0 24 13.5 SE 9 13 5 7 1011.6 1011.0 0.0
31/05:30pm 34.1 32.8 10.0 23 14.0 ENE 7 13 4 7 1011.5 - 0.0
31/05:00pm 33.9 33.0 10.5 24 13.6 ENE 6 11 3 6 1011.5 - 0.0
31/04:30pm 35.1 33.1 10.2 22 14.5 W 11 15 6 8 1011.4 - 0.0
31/04:00pm 34.4 32.8 10.3 23 14.0 S 9 13 5 7 1011.7 - 0.0
31/03:30pm 34.9 33.8 10.7 23 14.2 S 7 11 4 6 1012.1 - 0.0
31/03:00pm 35.0 33.4 11.4 24 14.0 E 11 19 6 10 1012.4 1011.8 0.0
31/02:30pm 34.2 32.4 12.0 26 13.3 NE 13 20 7 11 1012.8 - 0.0
31/02:00pm 34.5 33.7 12.8 27 13.1 W 9 15 5 8 1013.3 - 0.0
31/01:30pm 33.0 32.3 13.1 30 12.0 N 9 20 5 11 1013.7 - 0.0
31/01:00pm 33.6 32.3 13.6 29 12.2 NNE 13 22 7 12 1014.3 - 0.0
31/12:30pm 31.9 31.1 14.1 34 10.9 ESE 11 20 6 11 1014.8 - 0.0
31/12:00pm 31.7 32.1 15.2 36 10.2 N 7 15 4 8 1015.5 1015.0 0.0
31/11:30am 30.7 30.9 16.7 43 8.8 NW 11 19 6 10 1016.2 - 0.0
31/11:00am 30.5 30.4 16.9 44 8.6 NNW 13 17 7 9 1016.7 - 0.0
31/10:30am 29.9 31.1 18.3 49 7.5 NW 9 13 5 7 1017.0 - 0.0
31/10:00am 28.4 29.2 18.2 54 6.5 NW 11 17 6 9 1017.2 - 0.0
31/09:30am 27.5 28.7 18.2 57 5.9 NNW 9 15 5 8 1017.1 - 0.0
31/09:00am 26.4 27.3 18.3 61 5.2 N 11 17 6 9 1017.1 1016.5 0.0
31/08:30am 25.2 26.6 17.7 63 4.7 N 7 11 4 6 1016.8 - 0.0
31/08:00am 24.3 24.9 15.8 59 5.2 NE 7 11 4 6 1016.3 - 0.0
31/07:30am 21.3 21.7 13.7 62 4.4 E 4 7 2 4 1016.0 - 0.0
31/07:00am 21.0 20.9 13.9 64 4.1 ENE 7 9 4 5 1015.5 - 0.0
31/06:30am 19.9 19.2 13.1 65 3.9 ENE 9 11 5 6 1015.1 - 0.0
31/06:00am 18.8 18.0 11.1 61 4.2 ESE 6 7 3 4 1014.8 1014.3 0.0
31/05:30am 19.6 18.7 10.6 56 4.9 SSE 6 7 3 4 1014.5 - 0.0
31/05:00am 20.3 19.5 11.0 55 5.1 SE 6 7 3 4 1014.6 - 0.0
31/04:30am 20.8 19.7 10.6 52 5.6 E 7 9 4 5 1014.6 - 0.0
31/04:00am 21.6 20.0 10.1 48 6.3 E 9 13 5 7 1014.6 - 0.0
31/03:30am 22.3 20.3 10.1 46 6.7 ENE 11 13 6 7 1014.5 - 0.0
31/03:00am 22.2 20.2 10.0 46 6.7 NNE 11 15 6 8 1014.7 1014.2 0.0
31/02:30am 20.6 18.1 9.8 50 5.8 SE 13 17 7 9 1014.7 - 0.0
31/02:00am 20.4 17.6 9.9 51 5.7 SE 15 17 8 9 1014.8 - 0.0
31/01:30am 20.9 19.6 9.8 49 6.0 SE 7 9 4 5 1014.6 - 0.0
31/01:00am 22.1 20.3 9.6 45 6.8 SSE 9 13 5 7 1014.7 - 0.0
31/12:30am 23.8 20.7 9.0 39 8.0 SE 15 19 8 10 1015.0 - 0.0
31/12:00am 20.5 18.9 10.3 52 5.5 ESE 9 30 5 16 1015.2 1014.7 0.0
 
Date/Time
CST
Temp
°C
App
Temp
°C
Dew
Point
Rel
Hum
%
Delta-T
°C
Wind Press
QNH
hPa
Press
MSL
hPa
Rain
since 9 am
mm
Dir
 
Spd
km/h
Gust
km/h
Spd
kts
Gust
kts
30/11:30pm 20.5 19.7 10.9 54 5.3 ESE 6 20 3 11 1015.0 - 0.0
30/11:00pm 21.6 20.6 11.0 51 5.9 ESE 7 7 4 4 1014.9 - 0.0
30/10:30pm 21.9 20.9 11.0 50 6.1 SE 7 9 4 5 1015.0 - 0.0
30/10:00pm 22.5 21.7 10.9 48 6.5 SE 6 7 3 4 1015.0 - 0.0
30/09:30pm 24.3 23.4 10.6 42 7.7 ENE 6 7 3 4 1014.8 - 0.0
30/09:00pm 23.5 23.8 10.9 45 7.0 CALM 0 0 0 0 1014.9 1014.4 0.0
30/08:30pm 25.2 25.3 10.3 39 8.3 CALM 0 0 0 0 1014.5 - 0.0
30/08:00pm 26.2 25.6 10.4 37 8.9 SE 4 6 2 3 1014.2 - 0.0
30/07:30pm 27.2 26.1 10.0 34 9.6 SE 6 7 3 4 1013.9 - 0.0
30/07:00pm 30.0 28.5 9.0 27 11.7 SSE 7 9 4 5 1013.4 - 0.0
30/06:30pm 31.7 29.8 7.4 22 13.4 ESE 7 9 4 5 1013.1 - 0.0
30/06:00pm 33.4 30.3 7.4 20 14.4 ESE 13 15 7 8 1012.9 1012.3 0.0
30/05:30pm 34.1 30.6 7.2 19 14.9 E 15 20 8 11 1012.8 - 0.0
30/05:00pm 34.5 31.5 7.5 19 15.1 ESE 13 22 7 12 1012.6 - 0.0
30/04:30pm 34.8 32.0 7.0 18 15.4 ESE 11 13 6 7 1012.6 - 0.0
30/04:00pm 35.6 31.4 7.6 18 15.7 ESE 19 30 10 16 1012.7 - 0.0
30/03:30pm 35.3 31.1 8.2 19 15.3 SE 20 28 11 15 1012.9 - 0.0
30/03:00pm 34.6 31.8 8.4 20 14.8 ESE 13 22 7 12 1013.1 1012.6 0.0
30/02:30pm 34.7 30.7 9.2 21 14.6 E 20 35 11 19 1013.6 - 0.0
30/02:00pm 33.8 30.6 9.8 23 13.8 E 17 28 9 15 1014.1 - 0.0
30/01:30pm 33.5 30.0 10.2 24 13.5 ESE 19 26 10 14 1014.8 - 0.0
30/01:00pm 33.0 29.4 9.7 24 13.4 ESE 19 26 10 14 1015.3 - 0.0
30/12:30pm 31.9 28.7 10.0 26 12.6 E 17 26 9 14 1016.2 - 0.0
30/12:00pm 31.4 28.3 10.2 27 12.2 E 17 30 9 16 1016.8 1016.2 0.0
30/11:30am 30.7 26.6 10.1 28 11.8 E 22 33 12 18 1017.4 - 0.0
30/11:00am 30.8 27.4 10.7 29 11.6 ESE 19 28 10 15 1017.9 - 0.0
30/10:30am 29.4 25.4 10.5 31 10.8 E 22 32 12 17 1018.2 - 0.0
30/10:00am 28.5 25.1 11.1 34 10.0 ESE 20 28 11 15 1018.4 - 0.0
30/09:30am 27.6 24.3 11.6 37 9.2 E 20 26 11 14 1018.5 - 0.0
30/09:00am 26.5 23.3 11.8 40 8.5 ESE 20 26 11 14 1018.3 1017.7 0.0
30/08:30am 25.1 22.1 12.0 44 7.5 ESE 19 24 10 13 1018.1 - 0.0
30/08:00am 23.3 20.9 12.6 51 6.2 ESE 17 22 9 12 1017.8 - 0.0
30/07:30am 21.5 19.2 12.9 58 4.9 ESE 17 20 9 11 1017.5 - 0.0
30/07:00am 20.6 18.7 13.1 62 4.3 ESE 15 20 8 11 1017.1 - 0.0
30/06:30am 19.4 17.9 13.1 67 3.6 SE 13 15 7 8 1016.6 - 0.0
30/06:00am 19.8 17.9 13.0 65 3.9 SE 15 17 8 9 1016.2 1015.6 0.0
30/05:30am 20.1 18.9 12.8 63 4.1 SE 11 13 6 7 1015.9 - 0.0
30/05:00am 20.5 19.4 13.0 62 4.3 ESE 11 13 6 7 1015.7 - 0.0
30/04:30am 20.1 18.7 13.3 65 3.9 SE 13 13 7 7 1015.5 - 0.0
30/04:00am 22.0 21.6 13.1 57 5.1 ESE 7 11 4 6 1015.4 - 0.0
30/03:30am 23.0 22.4 13.5 55 5.5 N 9 11 5 6 1015.5 - 0.0
30/03:00am 23.1 22.0 13.0 53 5.8 ESE 11 15 6 8 1015.1 1014.6 0.0
30/02:30am 23.0 22.3 13.2 54 5.7 ESE 9 11 5 6 1015.2 - 0.0
30/02:00am 22.8 21.9 13.6 56 5.4 ESE 11 13 6 7 1015.2 - 0.0
30/01:30am 22.5 21.7 14.1 59 4.9 SE 11 13 6 7 1015.5 - 0.0
30/01:00am 23.0 21.8 14.0 57 5.3 SE 13 15 7 8 1015.7 - 0.0
30/12:30am 23.9 22.4 14.3 55 5.7 SE 15 19 8 10 1015.8 - 0.0
30/12:00am 24.8 23.5 14.9 54 6.0 SE 15 19 8 10 1015.9 1015.4 0.0
 
Date/Time
CST
Temp
°C
App
Temp
°C
Dew
Point
Rel
Hum
%
Delta-T
°C
Wind Press
QNH
hPa
Press
MSL
hPa
Rain
since 9 am
mm
Dir
 
Spd
km/h
Gust
km/h
Spd
kts
Gust
kts
29/11:30pm 26.8 25.2 13.9 45 7.7 ESE 15 22 8 12 1015.8 - 0.0

Other Formats:

Comma delimited format used in spreadsheet applications
http://www.bom.gov.au/fwo/IDD60801/IDD60801.94131.axf

JavaScript Object Notation format (JSON) in row-major order
http://www.bom.gov.au/fwo/IDD60801/IDD60801.94131.json